Time;durP1;ratioP1;P1;durP2;ratioP2;P2;SDS_P1;SDS_P2;PMS_P1;PMS_P2;Temp;Humidity;BMP_temperature;BMP_pressure;BME280_temperature;BME280_humidity;BME280_pressure;Samples;Min_cycle;Max_cycle;Signal;HPM_P1;HPM_P2
2023/03/22 00:02:12;;;;;;;21.17;8.30;;;;;;;10.18;76.55;99796.13;4987856;28;20064;-88
2023/03/22 00:04:41;;;;;;;21.17;10.23;;;;;;;10.10;76.65;99793.28;5022212;28;20040;-90
2023/03/22 00:07:08;;;;;;;19.98;8.77;;;;;;;10.10;76.89;99788.00;4998818;28;20129;-89
2023/03/22 00:09:35;;;;;;;16.88;9.00;;;;;;;10.16;76.34;99784.78;4986242;28;20083;-89
2023/03/22 00:12:02;;;;;;;17.45;8.75;;;;;;;10.14;76.41;99775.28;5009759;28;20049;-89
2023/03/22 00:14:29;;;;;;;19.60;8.38;;;;;;;10.08;76.85;99779.31;5006076;28;20052;-89
2023/03/22 00:16:55;;;;;;;32.40;10.60;;;;;;;10.12;76.48;99774.56;5017421;28;20037;-88
2023/03/22 00:19:22;;;;;;;19.55;8.50;;;;;;;10.12;76.40;99774.56;5021955;28;20037;-89
2023/03/22 00:21:50;;;;;;;18.25;8.80;;;;;;;10.04;76.61;99774.41;5025653;28;20107;-89
2023/03/22 00:24:17;;;;;;;19.35;8.15;;;;;;;10.15;76.27;99774.28;5016451;28;20033;-88
2023/03/22 00:26:46;;;;;;;20.42;9.07;;;;;;;10.10;76.25;99773.84;5025097;28;20506;-89
2023/03/22 00:29:13;;;;;;;16.92;8.27;;;;;;;10.10;75.79;99766.75;4997581;28;20053;-89
2023/03/22 00:31:40;;;;;;;22.52;9.77;;;;;;;9.93;76.66;99770.88;5006117;28;20492;-89
2023/03/22 00:34:07;;;;;;;17.13;8.93;;;;;;;9.97;76.80;99766.13;5021843;28;20057;-88
2023/03/22 00:36:36;;;;;;;18.08;8.02;;;;;;;9.98;76.54;99775.78;5009979;28;20155;-90
2023/03/22 00:39:03;;;;;;;22.85;9.57;;;;;;;10.02;76.65;99769.22;5018437;28;20399;-89
2023/03/22 00:41:30;;;;;;;22.75;8.77;;;;;;;10.03;76.31;99778.03;5008018;28;20478;-89
2023/03/22 00:43:56;;;;;;;18.65;8.07;;;;;;;9.94;76.86;99766.41;5014818;28;20049;-90
2023/03/22 00:46:23;;;;;;;19.02;9.30;;;;;;;10.01;76.75;99770.22;5026746;28;20404;-90
2023/03/22 00:48:50;;;;;;;21.67;9.18;;;;;;;9.98;77.17;99759.88;5023284;28;20056;-89
2023/03/22 00:51:17;;;;;;;20.40;8.52;;;;;;;9.98;77.21;99760.69;5018921;28;20055;-89
2023/03/22 00:53:44;;;;;;;22.58;8.95;;;;;;;10.05;76.82;99757.50;5016045;28;20057;-89
2023/03/22 00:56:14;;;;;;;21.95;10.23;;;;;;;10.00;76.97;99755.28;4992377;28;20045;-89
2023/03/22 00:58:45;;;;;;;19.77;9.32;;;;;;;10.06;76.60;99752.06;4992969;28;20128;-89
2023/03/22 01:01:12;;;;;;;17.35;9.35;;;;;;;10.04;76.88;99747.88;5021689;28;20505;-89
2023/03/22 01:03:41;;;;;;;19.60;9.55;;;;;;;10.05;76.48;99744.25;5013018;28;20049;-89
2023/03/22 01:06:16;;;;;;;22.55;9.85;;;;;;;9.99;76.44;99746.44;4989980;28;20073;-90
2023/03/22 01:08:44;;;;;;;21.00;9.75;;;;;;;9.99;76.43;99745.63;4958089;28;20061;-89
2023/03/22 01:11:11;;;;;;;16.17;9.55;;;;;;;9.92;76.43;99739.16;5006508;28;20053;-88
2023/03/22 01:13:40;;;;;;;25.73;10.20;;;;;;;9.92;76.03;99744.47;4994188;28;20055;-89
2023/03/22 01:16:08;;;;;;;18.75;8.77;;;;;;;9.90;75.73;99741.97;5025019;28;20484;-89
2023/03/22 01:18:35;;;;;;;20.38;8.73;;;;;;;9.90;75.81;99736.66;4992977;28;20654;-90
2023/03/22 01:21:02;;;;;;;19.75;9.32;;;;;;;9.86;75.95;99745.03;4987034;28;20054;-90
2023/03/22 01:23:30;;;;;;;18.67;10.20;;;;;;;9.90;75.91;99735.84;4960202;28;20041;-89
2023/03/22 01:25:58;;;;;;;20.05;8.82;;;;;;;9.88;75.88;99730.66;5005125;28;20093;-90
2023/03/22 01:28:25;;;;;;;21.75;9.00;;;;;;;9.81;76.17;99733.97;5010732;28;20544;-89
2023/03/22 01:30:53;;;;;;;23.52;9.77;;;;;;;9.86;75.98;99726.44;5007769;28;20049;-89
2023/03/22 01:33:21;;;;;;;15.52;8.45;;;;;;;9.84;76.03;99725.75;5001042;28;20510;-89
2023/03/22 01:35:48;;;;;;;17.38;9.00;;;;;;;9.86;76.05;99718.50;4982257;28;20124;-89
2023/03/22 01:38:15;;;;;;;19.58;9.07;;;;;;;9.84;75.64;99723.91;5008444;28;20049;-88
2023/03/22 01:40:53;;;;;;;19.58;10.10;;;;;;;9.83;76.01;99711.66;4995226;28;20053;-90
2023/03/22 01:43:20;;;;;;;14.07;8.23;;;;;;;9.84;76.19;99713.31;4980754;28;20485;-89
2023/03/22 01:45:51;;;;;;;21.55;9.23;;;;;;;9.83;75.47;99714.31;5007986;28;20052;-89
2023/03/22 01:48:32;;;;;;;16.38;9.10;;;;;;;9.82;75.93;99714.41;4979806;28;20052;-89
2023/03/22 01:51:12;;;;;;;22.67;9.68;;;;;;;9.80;76.21;99714.56;4978471;28;20124;-89
2023/03/22 01:54:18;;;;;;;19.75;9.05;;;;;;;9.78;76.19;99704.09;4912698;28;20433;-90
2023/03/22 01:56:45;;;;;;;20.25;9.38;;;;;;;9.81;76.68;99699.50;4988275;28;20118;-90
2023/03/22 01:59:21;;;;;;;17.63;9.45;;;;;;;9.78;76.68;99697.94;4997006;28;20173;-89
2023/03/22 02:02:09;;;;;;;26.85;10.02;;;;;;;9.76;76.63;99695.41;4944016;28;20048;-89
2023/03/22 02:04:38;;;;;;;25.77;10.02;;;;;;;9.78;76.51;99697.94;4987393;28;20123;-90
2023/03/22 02:07:14;;;;;;;18.85;8.70;;;;;;;9.67;76.57;99690.09;4975296;28;20060;-89
2023/03/22 02:09:42;;;;;;;20.25;9.25;;;;;;;9.70;76.71;99692.47;4989798;28;20041;-89
2023/03/22 02:12:20;;;;;;;21.38;8.88;;;;;;;9.68;76.58;99694.41;4999454;28;20454;-88
2023/03/22 02:14:50;;;;;;;20.58;9.05;;;;;;;9.61;76.66;99693.28;5006588;28;20104;-89
2023/03/22 02:18:10;;;;;;;18.88;9.32;;;;;;;9.36;76.75;99700.69;4995520;28;20515;-90
2023/03/22 02:20:51;;;;;;;23.83;9.30;;;;;;;9.37;76.69;99704.19;4841736;28;20054;-89
2023/03/22 02:23:27;;;;;;;17.98;8.65;;;;;;;9.48;76.18;99699.63;4972904;28;20069;-89
2023/03/22 02:26:00;;;;;;;16.42;9.52;;;;;;;9.34;76.46;99698.19;4994240;28;20042;-89
2023/03/22 02:28:35;;;;;;;17.95;8.70;;;;;;;9.33;76.55;99695.66;4998697;28;20068;-89
2023/03/22 02:31:20;;;;;;;23.92;8.77;;;;;;;9.39;76.30;99703.09;4968612;28;20041;-89
2023/03/22 02:34:29;;;;;;;17.23;9.50;;;;;;;9.32;76.27;99700.09;4978164;28;20073;-89
2023/03/22 02:37:37;;;;;;;22.67;9.13;;;;;;;9.17;76.92;99695.28;4870073;28;20130;-89
2023/03/22 02:40:24;;;;;;;19.38;9.25;;;;;;;9.24;76.77;99693.78;4889964;28;20159;-89
2023/03/22 02:43:15;;;;;;;21.08;8.60;;;;;;;9.19;76.61;99691.53;4929679;28;20041;-89
2023/03/22 02:45:50;;;;;;;16.05;9.35;;;;;;;9.25;76.58;99693.66;4977478;28;20702;-90
2023/03/22 02:48:22;;;;;;;15.77;8.52;;;;;;;9.18;76.59;99689.84;4978705;28;20497;-89
2023/03/22 02:50:53;;;;;;;18.85;8.18;;;;;;;9.27;76.79;99696.19;5013448;28;20723;-90
2023/03/22 02:53:25;;;;;;;15.13;7.68;;;;;;;9.26;76.77;99690.06;5006784;28;20576;-89
2023/03/22 02:56:06;;;;;;;17.20;8.25;;;;;;;9.29;77.27;99687.13;5007129;28;20053;-90
2023/03/22 02:58:45;;;;;;;21.20;9.15;;;;;;;9.24;76.89;99689.34;5003236;28;20046;-89
2023/03/22 03:01:17;;;;;;;19.00;9.05;;;;;;;9.36;77.37;99692.72;4983616;28;20100;-89
2023/03/22 03:03:47;;;;;;;14.57;8.27;;;;;;;9.32;77.25;99683.38;5002538;28;20058;-88
2023/03/22 03:06:17;;;;;;;17.42;8.57;;;;;;;9.27;77.49;99688.22;4975183;28;20048;-90
2023/03/22 03:08:45;;;;;;;21.25;9.52;;;;;;;9.42;77.35;99683.44;4985203;28;20049;-89
2023/03/22 03:11:13;;;;;;;18.80;8.70;;;;;;;9.35;77.89;99686.59;5006011;28;20470;-90
2023/03/22 03:13:40;;;;;;;20.55;9.07;;;;;;;9.34;78.14;99687.56;5000733;28;20045;-89
2023/03/22 03:16:12;;;;;;;20.00;8.80;;;;;;;9.27;78.84;99688.22;4979196;28;20059;-86
2023/03/22 03:18:57;;;;;;;20.95;8.35;;;;;;;9.23;78.46;99682.34;5002847;28;20050;-89
2023/03/22 03:21:44;;;;;;;17.10;9.23;;;;;;;9.20;78.63;99685.25;4999680;28;20486;-89
2023/03/22 03:24:25;;;;;;;16.95;8.57;;;;;;;9.32;78.00;99681.56;4965387;28;20052;-89
2023/03/22 03:27:10;;;;;;;19.63;9.13;;;;;;;9.32;77.77;99680.72;4970267;28;20174;-89
2023/03/22 03:29:45;;;;;;;24.48;8.50;;;;;;;9.30;77.23;99678.19;4976656;28;20051;-89
2023/03/22 03:32:34;;;;;;;16.48;8.77;;;;;;;9.32;76.65;99688.69;4983316;28;20056;-89
2023/03/22 03:35:25;;;;;;;17.70;8.75;;;;;;;9.42;76.61;99689.56;4954636;28;20103;-89
2023/03/22 03:38:08;;;;;;;18.77;7.93;;;;;;;9.34;76.79;99681.44;4948196;28;20034;-89
2023/03/22 03:40:49;;;;;;;18.25;7.38;;;;;;;9.30;77.11;99685.31;4953494;28;20413;-89
2023/03/22 03:43:17;;;;;;;27.08;8.57;;;;;;;9.38;77.13;99689.97;4969429;28;20053;-89
2023/03/22 03:45:44;;;;;;;14.85;7.57;;;;;;;9.40;77.03;99682.72;4969279;28;20045;-89
2023/03/22 03:48:22;;;;;;;25.17;8.77;;;;;;;9.32;77.53;99680.72;5000781;28;20053;-89
2023/03/22 03:50:51;;;;;;;18.55;7.90;;;;;;;9.41;77.48;99681.72;4993035;28;20049;-88
2023/03/22 03:53:18;;;;;;;18.40;8.85;;;;;;;9.39;77.51;99679.25;5018480;28;20041;-89
2023/03/22 03:55:45;;;;;;;16.45;7.45;;;;;;;9.47;77.16;99679.41;5007414;28;20516;-89
2023/03/22 03:58:14;;;;;;;17.25;7.70;;;;;;;9.42;77.43;99673.66;4992033;28;20046;-88
2023/03/22 04:00:44;;;;;;;17.08;7.05;;;;;;;9.41;77.28;99674.63;4993978;28;20143;-88
2023/03/22 04:03:30;;;;;;;18.20;9.05;;;;;;;9.45;77.21;99669.91;4960933;28;20049;-89
2023/03/22 04:06:20;;;;;;;24.48;9.30;;;;;;;9.40;77.02;99675.59;4967878;28;20519;-90
2023/03/22 04:08:52;;;;;;;18.57;7.87;;;;;;;9.48;76.91;99672.28;4960975;28;20064;-89
2023/03/22 04:11:23;;;;;;;16.13;8.20;;;;;;;9.42;77.05;99668.38;4990883;28;20045;-90
2023/03/22 04:13:54;;;;;;;21.23;7.60;;;;;;;9.34;77.45;99676.97;4992298;28;20073;-87
2023/03/22 04:16:23;;;;;;;16.75;8.07;;;;;;;9.38;77.71;99672.25;4991970;28;20065;-89
2023/03/22 04:18:51;;;;;;;19.33;7.97;;;;;;;9.40;77.67;99665.00;4984959;28;20528;-89
2023/03/22 04:21:18;;;;;;;25.13;8.90;;;;;;;9.41;77.91;99660.53;5003965;28;20512;-88
2023/03/22 04:23:52;;;;;;;21.70;8.18;;;;;;;9.37;78.10;99664.44;4979535;28;20381;-89
2023/03/22 04:26:19;;;;;;;18.98;7.65;;;;;;;9.38;78.21;99660.81;4991889;28;20049;-89
2023/03/22 04:29:01;;;;;;;17.60;8.63;;;;;;;9.37;78.05;99656.50;4940577;28;20049;-89
2023/03/22 04:31:30;;;;;;;18.05;8.73;;;;;;;9.38;77.98;99655.50;5007455;28;20133;-88
2023/03/22 04:34:16;;;;;;;20.00;8.43;;;;;;;9.39;77.83;99651.88;4970868;28;20060;-89
2023/03/22 04:36:53;;;;;;;18.60;8.07;;;;;;;9.34;78.00;99647.00;4960830;28;20049;-89
2023/03/22 04:39:34;;;;;;;18.63;8.65;;;;;;;9.31;77.72;99645.44;4975007;28;20054;-89
2023/03/22 04:42:26;;;;;;;21.10;7.63;;;;;;;9.36;78.45;99637.06;4921819;28;20050;-89
2023/03/22 04:45:03;;;;;;;18.73;8.02;;;;;;;9.36;78.19;99637.06;4992123;28;20404;-89
2023/03/22 04:47:31;;;;;;;19.27;8.40;;;;;;;9.37;78.54;99638.78;4993382;28;20037;-89
2023/03/22 04:50:00;;;;;;;16.80;7.13;;;;;;;9.35;78.79;99636.25;4983612;28;20046;-90
2023/03/22 04:52:30;;;;;;;17.52;8.50;;;;;;;9.31;78.90;99629.56;4998915;28;20102;-90
2023/03/22 04:55:00;;;;;;;21.77;8.07;;;;;;;9.32;78.83;99633.03;4994268;28;20480;-86
2023/03/22 04:57:27;;;;;;;23.55;9.80;;;;;;;9.33;78.81;99632.88;4993275;28;20061;-86
2023/03/22 04:59:55;;;;;;;18.13;8.63;;;;;;;9.29;78.63;99626.19;5004606;28;20131;-86
2023/03/22 05:02:22;;;;;;;17.95;8.07;;;;;;;9.23;79.09;99632.00;5013568;28;20049;-86
2023/03/22 05:04:49;;;;;;;20.13;8.82;;;;;;;9.24;78.71;99627.56;5007221;28;20069;-86
2023/03/22 05:07:38;;;;;;;19.52;8.10;;;;;;;9.24;78.97;99622.25;4979337;28;20064;-86
2023/03/22 05:10:07;;;;;;;16.65;8.48;;;;;;;9.23;79.00;99621.41;5008992;28;20115;-86
2023/03/22 05:12:34;;;;;;;16.00;8.85;;;;;;;9.16;79.31;99624.72;5020985;28;20042;-85
2023/03/22 05:15:20;;;;;;;17.33;9.13;;;;;;;9.14;79.35;99622.22;5003720;28;20052;-84
2023/03/22 05:17:49;;;;;;;18.73;10.00;;;;;;;9.15;79.69;99617.75;4990638;28;20042;-84
2023/03/22 05:20:16;;;;;;;17.83;8.75;;;;;;;9.09;79.87;99621.75;5010907;28;20049;-85
2023/03/22 05:22:49;;;;;;;27.00;10.15;;;;;;;9.14;79.50;99630.16;5001028;28;20050;-84
2023/03/22 05:25:17;;;;;;;21.25;8.30;;;;;;;9.14;79.80;99627.50;5004989;28;20061;-85
2023/03/22 05:27:45;;;;;;;19.00;8.23;;;;;;;9.17;79.72;99631.69;5011914;28;20049;-85
2023/03/22 05:30:34;;;;;;;14.52;7.60;;;;;;;9.15;79.72;99620.41;4991626;28;20401;-86
2023/03/22 05:33:20;;;;;;;23.83;9.18;;;;;;;9.16;79.95;99628.22;5004340;28;20065;-86
2023/03/22 05:35:49;;;;;;;25.27;9.13;;;;;;;9.18;80.08;99623.59;4984086;28;20461;-87
2023/03/22 05:38:16;;;;;;;17.75;7.88;;;;;;;9.23;79.35;99633.81;5007720;28;20040;-86
2023/03/22 05:40:48;;;;;;;24.60;8.60;;;;;;;9.24;79.43;99646.09;4993950;28;20067;-86
2023/03/22 05:43:15;;;;;;;19.63;8.73;;;;;;;9.28;79.11;99647.50;4996725;28;20045;-86
2023/03/22 05:45:46;;;;;;;21.35;9.75;;;;;;;9.31;78.94;99641.94;4972987;28;20539;-85
2023/03/22 05:48:52;;;;;;;22.95;9.30;;;;;;;9.22;79.59;99650.69;4887240;28;20418;-86
2023/03/22 05:51:19;;;;;;;18.95;9.65;;;;;;;9.23;79.72;99652.34;4922965;28;20056;-85
2023/03/22 05:53:50;;;;;;;21.83;9.23;;;;;;;9.21;79.61;99655.16;4983835;28;20049;-86
2023/03/22 05:56:23;;;;;;;18.55;9.73;;;;;;;9.18;79.91;99657.22;5004429;28;20072;-86
2023/03/22 05:58:58;;;;;;;22.23;10.30;;;;;;;9.17;79.69;99659.03;4957042;28;20059;-85
2023/03/22 06:01:25;;;;;;;20.88;8.25;;;;;;;9.18;79.47;99660.69;5011702;28;20156;-86
2023/03/22 06:04:10;;;;;;;22.40;9.88;;;;;;;9.19;79.49;99651.78;4984945;28;20041;-85
2023/03/22 06:06:49;;;;;;;23.77;9.85;;;;;;;9.15;79.63;99657.47;4974863;28;20147;-86
2023/03/22 06:09:30;;;;;;;17.17;9.05;;;;;;;9.20;79.56;99645.50;4993305;28;20143;-86
2023/03/22 06:11:57;;;;;;;13.68;8.60;;;;;;;9.21;79.63;99654.28;4985786;28;20061;-86
2023/03/22 06:14:24;;;;;;;25.85;9.13;;;;;;;9.19;79.90;99651.78;4974187;28;20041;-86
2023/03/22 06:17:14;;;;;;;21.67;9.45;;;;;;;9.18;80.46;99654.56;4989388;28;20041;-86
2023/03/22 06:19:42;;;;;;;19.77;9.25;;;;;;;9.20;80.29;99660.56;5006002;28;20061;-86
2023/03/22 06:22:10;;;;;;;23.73;9.07;;;;;;;9.23;80.08;99653.19;4992683;28;20038;-85
2023/03/22 06:24:39;;;;;;;20.65;9.35;;;;;;;9.31;79.65;99661.34;5006118;28;20048;-86
2023/03/22 06:27:08;;;;;;;19.30;8.63;;;;;;;9.33;79.30;99662.03;4972904;28;20072;-85
2023/03/22 06:29:35;;;;;;;24.70;9.38;;;;;;;9.33;79.12;99667.31;4992157;28;20049;-85
2023/03/22 06:32:05;;;;;;;21.77;9.77;;;;;;;9.30;79.46;99664.94;5006707;28;20053;-86
2023/03/22 06:34:32;;;;;;;17.98;9.05;;;;;;;9.36;79.17;99663.56;5013309;28;24556;-86
2023/03/22 06:37:00;;;;;;;21.50;9.45;;;;;;;9.44;78.57;99666.44;5004229;28;20505;-86
2023/03/22 06:39:33;;;;;;;;;;;;;;;9.20;79.76;99669.34;4973331;28;20044;-85
2023/03/22 06:42:00;;;;;;;19.70;9.52;;;;;;;9.45;78.69;99668.09;4986804;28;19928;-86
2023/03/22 06:44:26;;;;;;;33.85;13.93;;;;;;;9.56;78.60;99672.47;5006200;28;20042;-86
2023/03/22 06:47:04;;;;;;;23.38;10.65;;;;;;;9.61;78.32;99664.09;4984974;28;20049;-86
2023/03/22 06:49:47;;;;;;;25.10;10.50;;;;;;;9.67;78.51;99674.19;4935599;28;20040;-86
2023/03/22 06:52:20;;;;;;;20.15;10.00;;;;;;;9.64;78.54;99666.50;4988644;28;20053;-86
2023/03/22 06:54:46;;;;;;;26.38;10.55;;;;;;;9.71;77.96;99671.13;5005963;28;20486;-85
2023/03/22 06:57:13;;;;;;;20.83;10.20;;;;;;;9.73;78.15;99668.34;4996468;28;20156;-86
2023/03/22 06:59:40;;;;;;;22.83;10.02;;;;;;;9.69;78.12;99669.56;5006530;28;20055;-86
2023/03/22 07:02:11;;;;;;;23.48;10.82;;;;;;;9.68;78.33;99673.22;4996241;28;20113;-85
2023/03/22 07:04:40;;;;;;;23.17;10.18;;;;;;;9.70;78.25;99674.75;4990651;28;20103;-86
2023/03/22 07:07:07;;;;;;;23.83;10.50;;;;;;;9.70;78.43;99669.47;5005798;28;20136;-86
2023/03/22 07:09:34;;;;;;;21.20;11.23;;;;;;;9.70;78.52;99672.09;4986944;28;20044;-85
2023/03/22 07:12:03;;;;;;;25.45;10.32;;;;;;;9.82;78.33;99670.19;4985462;28;20445;-86
2023/03/22 07:14:30;;;;;;;24.98;10.90;;;;;;;9.87;78.36;99672.41;4983564;28;20485;-86
2023/03/22 07:17:05;;;;;;;25.80;11.50;;;;;;;9.94;78.10;99673.56;5009297;28;20799;-86
2023/03/22 07:19:32;;;;;;;23.70;11.43;;;;;;;10.03;77.97;99674.59;4991590;28;20076;-85
2023/03/22 07:22:04;;;;;;;33.67;11.20;;;;;;;10.09;77.91;99677.50;4974398;28;20138;-86
2023/03/22 07:24:32;;;;;;;30.38;12.40;;;;;;;10.09;78.13;99676.69;4990005;28;20068;-86
2023/03/22 07:27:01;;;;;;;32.65;13.45;;;;;;;10.16;77.77;99677.81;4962916;28;20068;-86
2023/03/22 07:29:28;;;;;;;22.33;11.18;;;;;;;10.13;77.90;99678.09;5000250;28;20045;-86
2023/03/22 07:31:55;;;;;;;19.90;10.02;;;;;;;10.18;78.07;99670.56;4993199;28;20052;-86
2023/03/22 07:34:27;;;;;;;22.55;11.48;;;;;;;10.25;78.14;99662.88;5021204;28;20046;-86
2023/03/22 07:37:01;;;;;;;24.17;11.05;;;;;;;10.36;77.65;99660.97;4953329;28;20069;-84
2023/03/22 07:39:29;;;;;;;25.42;10.90;;;;;;;10.45;77.65;99661.94;5005763;28;20049;-86
2023/03/22 07:41:56;;;;;;;26.42;11.30;;;;;;;10.51;77.26;99655.25;4993523;28;20049;-86
2023/03/22 07:44:23;;;;;;;27.05;11.18;;;;;;;10.58;77.30;99659.88;5010241;28;20049;-86
2023/03/22 07:47:10;;;;;;;25.33;11.13;;;;;;;10.60;77.22;99657.06;4955077;28;20460;-86
2023/03/22 07:50:04;;;;;;;35.85;12.77;;;;;;;10.69;77.16;99660.72;4927969;28;20049;-85
2023/03/22 07:52:32;;;;;;;26.08;12.93;;;;;;;10.74;77.30;99671.75;4982238;28;20061;-86
2023/03/22 07:54:59;;;;;;;27.52;12.40;;;;;;;10.79;77.51;99664.19;4990828;28;20140;-86
2023/03/22 07:57:25;;;;;;;23.08;10.35;;;;;;;10.86;77.19;99666.13;4991823;28;20091;-85
2023/03/22 07:59:55;;;;;;;23.38;12.95;;;;;;;10.93;77.15;99660.25;4992281;28;20129;-85
2023/03/22 08:02:26;;;;;;;29.13;13.13;;;;;;;10.99;77.33;99662.31;4979607;28;20199;-86
2023/03/22 08:04:56;;;;;;;28.48;12.68;;;;;;;11.02;77.53;99657.56;4985414;28;20543;-85
2023/03/22 08:07:41;;;;;;;27.17;12.43;;;;;;;11.06;78.27;99660.78;4953857;28;20120;-85
2023/03/22 08:10:09;;;;;;;24.42;12.50;;;;;;;11.11;78.03;99665.66;4984481;28;20045;-86
2023/03/22 08:12:36;;;;;;;32.28;13.30;;;;;;;11.18;78.27;99666.78;5005199;28;20050;-86
2023/03/22 08:15:19;;;;;;;27.37;11.73;;;;;;;11.16;77.94;99663.41;4986601;28;20488;-86
2023/03/22 08:17:48;;;;;;;26.75;11.65;;;;;;;11.15;78.42;99653.78;5007244;28;20472;-85
2023/03/22 08:20:26;;;;;;;27.25;11.60;;;;;;;11.16;78.54;99660.75;5014937;28;20132;-86
2023/03/22 08:22:58;;;;;;;31.60;12.20;;;;;;;11.17;78.22;99659.75;4979879;28;20053;-86
2023/03/22 08:25:25;;;;;;;30.83;13.10;;;;;;;11.16;78.28;99671.38;4974012;28;20053;-85
2023/03/22 08:27:55;;;;;;;30.38;13.57;;;;;;;11.18;77.74;99664.94;5009292;28;20048;-86
2023/03/22 08:30:24;;;;;;;32.45;14.15;;;;;;;11.14;77.38;99660.06;5009178;28;20064;-86
2023/03/22 08:32:52;;;;;;;36.28;15.73;;;;;;;11.14;77.86;99660.88;4996832;28;20440;-86
2023/03/22 08:35:19;;;;;;;26.00;12.27;;;;;;;11.18;77.57;99659.63;4996386;28;20153;-85
2023/03/22 08:37:46;;;;;;;30.65;13.25;;;;;;;11.22;77.64;99655.72;4992959;28;20072;-86
2023/03/22 08:40:14;;;;;;;28.35;14.18;;;;;;;11.25;77.26;99654.59;4989938;28;20052;-85
2023/03/22 08:42:58;;;;;;;28.23;12.40;;;;;;;11.29;77.53;99651.47;4963899;28;20042;-86
2023/03/22 08:45:27;;;;;;;30.65;12.90;;;;;;;11.36;77.41;99650.91;4974569;28;20105;-86
2023/03/22 08:48:01;;;;;;;39.63;14.18;;;;;;;11.41;77.65;99652.16;5008722;28;20489;-85
2023/03/22 08:50:40;;;;;;;34.33;12.75;;;;;;;11.46;77.74;99652.53;5004336;28;20050;-84
2023/03/22 08:53:15;;;;;;;24.67;11.75;;;;;;;11.55;77.59;99648.19;5002010;28;20052;-86
2023/03/22 08:55:48;;;;;;;18.50;8.90;;;;;;;11.65;77.20;99643.66;4977766;28;20128;-86
2023/03/22 08:58:41;;;;;;;17.08;6.78;;;;;;;11.73;76.87;99643.75;4976142;28;20048;-86
2023/03/22 09:01:20;;;;;;;15.63;6.05;;;;;;;11.83;75.47;99626.88;5008118;28;20437;-86
2023/03/22 09:03:52;;;;;;;10.63;4.70;;;;;;;11.91;75.48;99643.00;4974872;28;20536;-86
2023/03/22 09:06:19;;;;;;;12.82;4.90;;;;;;;11.92;74.27;99624.22;5003839;28;20662;-86
2023/03/22 09:08:50;;;;;;;12.05;4.28;;;;;;;11.98;73.84;99628.09;5009331;28;20042;-85
2023/03/22 09:11:20;;;;;;;11.13;3.92;;;;;;;12.01;73.66;99621.63;5007286;28;20405;-85
2023/03/22 09:13:48;;;;;;;10.82;4.45;;;;;;;12.07;73.44;99613.06;4980661;28;20132;-85
2023/03/22 09:16:16;;;;;;;8.77;4.05;;;;;;;12.11;73.28;99612.63;5004956;28;20129;-85
2023/03/22 09:18:44;;;;;;;8.88;3.15;;;;;;;12.13;72.73;99610.63;5003325;28;20125;-84
2023/03/22 09:21:15;;;;;;;12.70;3.75;;;;;;;12.21;72.88;99615.19;4988724;28;20166;-84
2023/03/22 09:23:55;;;;;;;9.80;3.88;;;;;;;12.25;72.59;99607.75;4991889;28;20493;-85
2023/03/22 09:26:30;;;;;;;7.35;3.25;;;;;;;12.32;72.44;99606.16;4975544;28;20064;-86
2023/03/22 09:28:58;;;;;;;8.27;3.63;;;;;;;12.37;72.43;99599.38;4971392;28;20046;-85
2023/03/22 09:31:27;;;;;;;11.00;4.10;;;;;;;12.45;71.87;99600.44;4962484;28;20117;-85
2023/03/22 09:34:05;;;;;;;10.20;3.47;;;;;;;12.50;71.67;99593.66;4960625;28;20168;-85
2023/03/22 09:36:33;;;;;;;8.95;2.92;;;;;;;12.56;71.39;99586.88;5021404;28;20049;-85
2023/03/22 09:39:00;;;;;;;6.35;3.03;;;;;;;12.62;71.28;99591.59;5005654;28;20053;-84
2023/03/22 09:41:35;;;;;;;5.40;2.78;;;;;;;12.65;70.34;99585.94;4993346;28;20065;-84
2023/03/22 09:44:05;;;;;;;10.18;3.05;;;;;;;12.73;69.69;99588.66;4998507;28;20081;-84
2023/03/22 09:46:47;;;;;;;5.05;2.78;;;;;;;12.72;69.52;99605.66;5020262;28;20377;-85
2023/03/22 09:49:19;;;;;;;9.50;3.42;;;;;;;12.75;69.55;99583.19;4987162;28;20100;-85
2023/03/22 09:51:49;;;;;;;10.52;3.60;;;;;;;12.73;69.31;99599.31;4974781;28;20045;-85
2023/03/22 09:54:26;;;;;;;12.10;4.15;;;;;;;12.68;68.25;99584.81;5001620;28;20049;-84
2023/03/22 09:57:18;;;;;;;8.52;3.30;;;;;;;12.64;68.92;99586.91;4990452;28;20053;-84
2023/03/22 10:00:10;;;;;;;9.02;3.33;;;;;;;12.66;68.16;99576.13;4975155;28;20120;-85
2023/03/22 10:03:00;;;;;;;8.13;3.55;;;;;;;12.71;68.23;99587.97;4953109;28;20065;-84
2023/03/22 10:05:39;;;;;;;6.05;2.70;;;;;;;12.79;69.07;99581.88;4986650;28;20462;-85
2023/03/22 10:08:27;;;;;;;8.95;3.53;;;;;;;12.72;68.43;99572.81;4986691;28;20129;-85
2023/03/22 10:10:56;;;;;;;7.15;3.15;;;;;;;12.81;68.80;99564.72;4972041;28;20041;-84
2023/03/22 10:13:52;;;;;;;7.43;3.00;;;;;;;12.79;68.15;99566.72;5001476;28;20103;-84
2023/03/22 10:16:26;;;;;;;7.63;3.72;;;;;;;12.91;68.12;99561.16;4970597;28;20069;-84
2023/03/22 10:18:57;;;;;;;8.15;4.03;;;;;;;12.95;67.97;99560.69;4987878;28;20432;-84
2023/03/22 10:21:25;;;;;;;10.32;4.93;;;;;;;13.02;67.70;99553.69;4998858;28;20439;-84
2023/03/22 10:23:58;;;;;;;7.93;2.90;;;;;;;13.07;67.61;99552.41;4997384;28;20058;-83
2023/03/22 10:26:32;;;;;;;3.75;2.40;;;;;;;13.08;66.51;99549.59;5004695;28;20056;-84
2023/03/22 10:29:02;;;;;;;5.68;2.45;;;;;;;13.15;66.68;99545.28;4992624;28;20493;-85
2023/03/22 10:31:30;;;;;;;7.32;2.08;;;;;;;13.14;66.22;99546.25;5005085;28;20383;-85
2023/03/22 10:34:14;;;;;;;5.75;2.40;;;;;;;13.10;65.70;99546.75;4993741;28;20049;-86
2023/03/22 10:36:40;;;;;;;;;;;;;;;13.01;64.90;99552.03;4972552;28;20054;-85
2023/03/22 10:39:27;;;;;;;4.93;1.88;;;;;;;13.13;65.50;99541.94;5005783;28;19928;-86
2023/03/22 10:41:56;;;;;;;3.67;2.00;;;;;;;13.21;66.09;99536.66;4966085;28;20045;-84
2023/03/22 10:44:26;;;;;;;6.78;2.17;;;;;;;13.30;65.96;99534.03;5012210;28;20509;-85
2023/03/22 10:46:53;;;;;;;10.63;2.75;;;;;;;13.35;66.12;99531.72;5009758;28;20460;-85
2023/03/22 10:49:26;;;;;;;4.90;2.10;;;;;;;13.36;65.70;99531.56;4990324;28;20038;-85
2023/03/22 10:51:56;;;;;;;6.90;2.25;;;;;;;13.42;65.96;99516.75;4971535;28;20128;-85
2023/03/22 10:54:24;;;;;;;7.72;2.30;;;;;;;13.50;65.75;99529.28;4967817;28;20050;-85
2023/03/22 10:56:51;;;;;;;3.67;2.28;;;;;;;13.51;65.12;99518.47;4992895;28;20037;-85
2023/03/22 10:59:40;;;;;;;2.83;1.85;;;;;;;13.43;63.24;99521.06;5025653;28;20037;-85
2023/03/22 11:02:28;;;;;;;6.07;2.05;;;;;;;13.44;64.62;99525.44;4975064;28;20517;-85
2023/03/22 11:04:58;;;;;;;3.47;2.00;;;;;;;13.52;64.71;99527.28;4971157;28;20404;-85
2023/03/22 11:07:38;;;;;;;5.47;1.92;;;;;;;13.54;64.41;99511.97;5016746;28;20049;-85
2023/03/22 11:10:07;;;;;;;5.85;2.00;;;;;;;13.56;64.65;99518.81;4960657;28;20505;-84
2023/03/22 11:12:35;;;;;;;3.75;1.73;;;;;;;13.58;64.16;99514.13;5012113;28;20120;-85
2023/03/22 11:15:05;;;;;;;3.92;1.80;;;;;;;13.63;63.91;99511.78;4987528;28;20101;-85
2023/03/22 11:17:36;;;;;;;2.45;1.67;;;;;;;13.62;63.39;99520.81;4989784;28;20038;-85
2023/03/22 11:20:08;;;;;;;3.05;1.73;;;;;;;13.64;63.82;99521.47;4985638;28;20046;-85
2023/03/22 11:22:41;;;;;;;5.70;1.80;;;;;;;13.63;63.67;99514.47;5013956;28;20108;-85
2023/03/22 11:25:15;;;;;;;8.20;2.00;;;;;;;13.56;63.23;99513.47;5018795;28;20452;-85
2023/03/22 11:28:17;;;;;;;4.53;1.75;;;;;;;13.53;63.54;99516.44;4998037;28;20041;-85
2023/03/22 11:31:06;;;;;;;4.85;2.33;;;;;;;13.57;63.74;99506.28;4955832;28;20448;-85
2023/03/22 11:33:33;;;;;;;7.10;1.75;;;;;;;13.67;64.13;99505.16;4956489;28;20397;-85
2023/03/22 11:36:03;;;;;;;6.03;2.13;;;;;;;13.73;63.81;99508.16;4982226;28;20054;-85
2023/03/22 11:38:35;;;;;;;3.92;1.80;;;;;;;13.73;63.85;99502.81;4989166;28;20045;-85
2023/03/22 11:41:05;;;;;;;10.07;2.20;;;;;;;13.77;63.85;99501.50;4976628;28;20751;-85
2023/03/22 11:43:34;;;;;;;5.13;1.70;;;;;;;13.77;63.89;99497.00;5014991;28;20139;-85
2023/03/22 11:46:02;;;;;;;5.07;1.90;;;;;;;13.80;63.82;99504.66;4990020;28;20389;-85
2023/03/22 11:48:30;;;;;;;4.55;1.92;;;;;;;13.84;63.35;99503.34;5008390;28;20045;-84
2023/03/22 11:51:24;;;;;;;11.38;2.80;;;;;;;13.78;63.31;99492.50;5008651;28;20045;-85
2023/03/22 11:53:55;;;;;;;7.80;2.50;;;;;;;13.82;62.58;99492.00;4972757;28;20041;-85
2023/03/22 11:56:27;;;;;;;4.80;1.90;;;;;;;13.87;62.52;99484.34;5002565;28;20502;-86
2023/03/22 11:59:02;;;;;;;6.13;2.53;;;;;;;13.95;62.41;99480.84;4987020;28;20057;-84